Time;durP1;ratioP1;P1;durP2;ratioP2;P2;SDS_P1;SDS_P2;PMS_P1;PMS_P2;Temp;Humidity;BMP_temperature;BMP_pressure;BME280_temperature;BME280_humidity;BME280_pressure;Samples;Min_cycle;Max_cycle;Signal;HPM_P1;HPM_P2
2023/07/26 00:05:19;;;;;;;;;;;13.40;99.90;;;;;;12526429;28;19921;-42
2023/07/26 00:11:21;;;;;;;;;;;13.60;99.90;;;;;;12523816;28;19921;-42
2023/07/26 00:17:24;;;;;;;;;;;13.60;99.90;;;;;;12509190;28;19943;-42
2023/07/26 00:23:27;;;;;;;;;;;13.40;99.90;;;;;;12515221;28;20361;-42
2023/07/26 00:29:30;;;;;;;;;;;13.30;99.90;;;;;;12519357;28;19924;-42
2023/07/26 00:35:35;;;;;;;;;;;13.30;99.90;;;;;;12514031;28;19929;-42
2023/07/26 00:41:38;;;;;;;;;;;13.10;99.90;;;;;;12506088;28;19932;-41
2023/07/26 00:47:41;;;;;;;;;;;13.20;99.90;;;;;;12510923;28;19921;-42
2023/07/26 00:53:43;;;;;;;;;;;13.10;99.90;;;;;;12514489;28;19925;-41
2023/07/26 00:59:45;;;;;;;;;;;13.20;99.90;;;;;;12512546;28;19925;-42
2023/07/26 01:05:47;;;;;;;;;;;13.20;99.90;;;;;;12512521;28;19932;-42
2023/07/26 01:11:52;;;;;;;;;;;13.10;99.90;;;;;;12522157;28;19928;-42
2023/07/26 01:18:11;;;;;;;;;;;13.00;99.90;;;;;;12548360;28;19932;-42
2023/07/26 01:24:13;;;;;;;;;;;13.10;99.90;;;;;;12522336;28;19928;-42
2023/07/26 01:30:16;;;;;;;;;;;13.10;99.90;;;;;;12519354;28;19921;-42
2023/07/26 01:36:20;;;;;;;;;;;12.90;99.90;;;;;;12521414;28;19921;-42
2023/07/26 01:42:22;;;;;;;;;;;12.90;99.90;;;;;;12517329;28;20007;-42
2023/07/26 01:48:25;;;;;;;;;;;12.80;99.90;;;;;;12528711;28;20285;-42
2023/07/26 01:54:28;;;;;;;;;;;12.90;99.90;;;;;;12531032;28;20008;-42
2023/07/26 02:00:32;;;;;;;;;;;12.80;99.90;;;;;;12519038;28;19948;-41
2023/07/26 02:06:34;;;;;;;;;;;12.80;99.90;;;;;;12542277;28;19928;-42
2023/07/26 02:12:38;;;;;;;;;;;12.80;99.90;;;;;;12529054;28;19928;-42
2023/07/26 02:18:44;;;;;;;;;;;12.70;99.90;;;;;;12522644;28;19932;-42
2023/07/26 02:24:46;;;;;;;;;;;12.60;99.90;;;;;;12519475;28;19929;-41
2023/07/26 02:30:49;;;;;;;;;;;12.80;99.90;;;;;;12510588;28;19925;-41
2023/07/26 02:36:51;;;;;;;;;;;12.80;99.90;;;;;;12489643;28;19933;-42
2023/07/26 02:42:53;;;;;;;;;;;12.90;99.90;;;;;;12518193;28;19968;-42
2023/07/26 02:48:56;;;;;;;;;;;12.80;99.90;;;;;;12515946;28;19990;-42
2023/07/26 02:54:59;;;;;;;;;;;12.70;99.90;;;;;;12541298;28;19947;-42
2023/07/26 03:01:02;;;;;;;;;;;12.60;99.90;;;;;;12531617;28;20016;-42
2023/07/26 03:07:05;;;;;;;;;;;12.60;99.90;;;;;;12520907;28;20331;-42
2023/07/26 03:13:08;;;;;;;;;;;12.70;99.90;;;;;;12531825;28;20293;-42
2023/07/26 03:19:12;;;;;;;;;;;12.60;99.90;;;;;;12511355;28;20430;-42
2023/07/26 03:25:15;;;;;;;;;;;12.70;99.90;;;;;;12521641;28;19920;-42
2023/07/26 03:31:17;;;;;;;;;;;12.70;99.90;;;;;;12530257;28;19929;-41
2023/07/26 03:37:20;;;;;;;;;;;12.60;99.90;;;;;;12512190;28;19920;-41
2023/07/26 03:43:23;;;;;;;;;;;12.50;99.90;;;;;;12501881;28;19991;-42
2023/07/26 03:49:26;;;;;;;;;;;12.60;99.90;;;;;;12516986;28;20280;-42
2023/07/26 03:55:28;;;;;;;;;;;12.60;99.90;;;;;;12508343;28;19943;-41
2023/07/26 04:01:31;;;;;;;;;;;12.60;99.90;;;;;;12516620;28;19928;-41
2023/07/26 04:07:39;;;;;;;;;;;12.40;99.90;;;;;;12525101;28;19935;-42
2023/07/26 04:13:41;;;;;;;;;;;12.40;99.90;;;;;;12506086;28;20293;-42
2023/07/26 04:19:44;;;;;;;;;;;12.40;99.90;;;;;;12501359;28;19924;-41
2023/07/26 04:25:49;;;;;;;;;;;12.40;99.90;;;;;;12513784;28;20397;-42
2023/07/26 04:31:52;;;;;;;;;;;12.40;99.90;;;;;;12507330;28;19968;-41
2023/07/26 04:37:55;;;;;;;;;;;12.40;99.90;;;;;;12520201;28;20304;-42
2023/07/26 04:43:58;;;;;;;;;;;12.50;99.90;;;;;;12514873;28;19975;-42
2023/07/26 04:50:01;;;;;;;;;;;12.60;99.90;;;;;;12502110;28;19921;-42
2023/07/26 04:56:04;;;;;;;;;;;12.80;99.90;;;;;;12501991;28;19928;-42
2023/07/26 05:02:07;;;;;;;;;;;12.80;99.90;;;;;;12523799;28;19925;-42
2023/07/26 05:08:09;;;;;;;;;;;12.70;99.90;;;;;;12510611;28;20369;-41
2023/07/26 05:14:12;;;;;;;;;;;12.70;99.90;;;;;;12522356;28;20435;-42
2023/07/26 05:20:17;;;;;;;;;;;12.70;99.90;;;;;;12522995;28;20377;-41
2023/07/26 05:26:20;;;;;;;;;;;12.60;99.90;;;;;;12510049;28;20372;-42
2023/07/26 05:32:22;;;;;;;;;;;12.50;99.90;;;;;;12508208;28;20281;-42
2023/07/26 05:38:25;;;;;;;;;;;12.40;99.90;;;;;;12508807;28;19924;-41
2023/07/26 05:44:28;;;;;;;;;;;12.50;99.90;;;;;;12499502;28;19921;-42
2023/07/26 05:50:31;;;;;;;;;;;12.60;99.90;;;;;;12513924;28;19921;-42
2023/07/26 05:56:34;;;;;;;;;;;12.90;99.90;;;;;;12513652;28;19921;-42
2023/07/26 06:02:37;;;;;;;;;;;13.20;99.90;;;;;;12520160;28;19972;-40
2023/07/26 06:08:41;;;;;;;;;;;13.40;99.90;;;;;;12528365;28;20426;-42
2023/07/26 06:14:44;;;;;;;;;;;13.40;99.90;;;;;;12524335;28;19921;-42
2023/07/26 06:20:46;;;;;;;;;;;13.40;99.90;;;;;;12515081;28;20047;-42
2023/07/26 06:26:50;;;;;;;;;;;13.50;99.90;;;;;;12508234;28;20317;-42
2023/07/26 06:32:54;;;;;;;;;;;13.80;99.90;;;;;;12499549;28;20364;-42
2023/07/26 06:38:57;;;;;;;;;;;13.90;99.90;;;;;;12517846;28;19966;-42
2023/07/26 06:45:00;;;;;;;;;;;14.10;99.90;;;;;;12509503;28;19967;-42
2023/07/26 06:51:04;;;;;;;;;;;14.00;99.90;;;;;;12521304;28;19932;-43
2023/07/26 06:57:06;;;;;;;;;;;14.00;99.90;;;;;;12520889;28;19921;-42
2023/07/26 07:03:08;;;;;;;;;;;14.00;99.90;;;;;;12535869;28;20289;-42
2023/07/26 07:09:12;;;;;;;;;;;14.30;99.90;;;;;;12508787;28;19921;-42
2023/07/26 07:15:16;;;;;;;;;;;14.20;99.90;;;;;;12505205;28;20044;-43
2023/07/26 07:21:18;;;;;;;;;;;14.30;99.90;;;;;;12509521;28;20023;-43
2023/07/26 07:27:24;;;;;;;;;;;14.50;99.90;;;;;;12513866;28;19921;-42
2023/07/26 07:33:27;;;;;;;;;;;15.00;99.90;;;;;;12509809;28;20023;-43
2023/07/26 07:39:31;;;;;;;;;;;15.20;99.90;;;;;;12519643;28;20004;-42
2023/07/26 07:45:38;;;;;;;;;;;15.10;99.90;;;;;;12499049;28;20019;-42
2023/07/26 07:51:40;;;;;;;;;;;15.10;99.90;;;;;;12499997;28;19956;-43
2023/07/26 07:57:43;;;;;;;;;;;15.40;99.90;;;;;;12519298;28;20300;-43
2023/07/26 08:03:47;;;;;;;;;;;15.60;99.90;;;;;;12506119;28;20394;-43
2023/07/26 08:09:50;;;;;;;;;;;15.60;99.90;;;;;;12512276;28;19990;-43
2023/07/26 08:15:52;;;;;;;;;;;15.70;99.90;;;;;;12513674;28;19931;-42
2023/07/26 08:21:55;;;;;;;;;;;15.80;99.90;;;;;;12511190;28;20031;-43
2023/07/26 08:27:59;;;;;;;;;;;15.70;99.90;;;;;;12495136;28;19928;-44
2023/07/26 08:34:01;;;;;;;;;;;15.70;99.90;;;;;;12522219;28;19921;-43
2023/07/26 08:40:05;;;;;;;;;;;16.00;99.90;;;;;;12497505;28;20350;-43
2023/07/26 08:46:08;;;;;;;;;;;15.90;99.90;;;;;;12510205;28;20315;-43
2023/07/26 08:52:10;;;;;;;;;;;15.90;99.90;;;;;;12511411;28;19921;-43
2023/07/26 08:58:12;;;;;;;;;;;16.20;99.90;;;;;;12503060;28;19924;-43
2023/07/26 09:04:14;;;;;;;;;;;16.30;99.90;;;;;;12514275;28;19928;-43
2023/07/26 09:10:38;;;;;;;;;;;16.70;99.90;;;;;;12517832;28;19925;-43
2023/07/26 09:16:40;;;;;;;;;;;17.00;99.90;;;;;;12514921;28;19921;-43
2023/07/26 09:22:43;;;;;;;;;;;17.00;99.90;;;;;;12511990;28;20369;-43
2023/07/26 09:28:53;;;;;;;;;;;17.30;99.90;;;;;;12514155;28;20061;-43
2023/07/26 09:34:59;;;;;;;;;;;17.60;99.90;;;;;;12527987;28;19921;-43
2023/07/26 09:41:20;;;;;;;;;;;17.30;99.90;;;;;;12511206;28;20046;-43
2023/07/26 09:47:32;;;;;;;;;;;18.10;99.90;;;;;;12523783;28;20028;-43
2023/07/26 09:53:42;;;;;;;;;;;18.80;99.90;;;;;;12531053;28;19920;-43
2023/07/26 09:59:46;;;;;;;;;;;19.00;99.90;;;;;;12519017;28;19928;-43
2023/07/26 10:05:50;;;;;;;;;;;19.10;99.90;;;;;;12504034;28;20439;-43
2023/07/26 10:11:55;;;;;;;;;;;18.50;99.90;;;;;;12512652;28;19925;-42
2023/07/26 10:17:57;;;;;;;;;;;18.30;99.90;;;;;;12513842;28;19928;-44
2023/07/26 10:24:00;;;;;;;;;;;18.80;99.90;;;;;;12510814;28;19920;-43
2023/07/26 10:30:03;;;;;;;;;;;19.10;99.90;;;;;;12516795;28;20305;-43
2023/07/26 10:36:10;;;;;;;;;;;18.70;99.90;;;;;;12503641;28;21140;-43
2023/07/26 10:42:27;;;;;;;;;;;17.70;99.90;;;;;;12501726;28;19921;-43
2023/07/26 10:48:40;;;;;;;;;;;17.30;99.90;;;;;;12507470;28;19955;-43
2023/07/26 10:54:43;;;;;;;;;;;17.30;99.90;;;;;;12530702;28;19928;-43
2023/07/26 11:00:46;;;;;;;;;;;17.90;99.90;;;;;;12518395;28;20331;-43
2023/07/26 11:06:49;;;;;;;;;;;17.60;99.90;;;;;;12504912;28;19925;-43
2023/07/26 11:13:04;;;;;;;;;;;17.50;99.90;;;;;;12526702;28;20463;-43
2023/07/26 11:19:08;;;;;;;;;;;17.50;99.90;;;;;;12515604;28;19932;-43
2023/07/26 11:25:11;;;;;;;;;;;18.60;99.90;;;;;;12522202;28;19986;-43
2023/07/26 11:31:19;;;;;;;;;;;18.60;99.90;;;;;;12508414;28;19924;-44
2023/07/26 11:37:22;;;;;;;;;;;18.70;99.90;;;;;;12509961;28;20411;-44
2023/07/26 11:43:26;;;;;;;;;;;19.00;99.90;;;;;;12500184;28;19925;-44
2023/07/26 11:49:28;;;;;;;;;;;18.70;99.90;;;;;;12514558;28;20054;-43
2023/07/26 11:55:32;;;;;;;;;;;18.40;99.90;;;;;;12511710;28;19925;-43
2023/07/26 12:01:36;;;;;;;;;;;18.10;99.90;;;;;;12517972;28;19921;-43
2023/07/26 12:07:59;;;;;;;;;;;17.80;99.90;;;;;;12500203;28;19959;-43
2023/07/26 12:14:02;;;;;;;;;;;18.20;99.90;;;;;;12499799;28;19925;-43
2023/07/26 12:20:08;;;;;;;;;;;18.20;99.90;;;;;;12524101;28;20007;-43
2023/07/26 12:26:25;;;;;;;;;;;18.00;99.90;;;;;;12482987;28;19963;-43
2023/07/26 12:32:28;;;;;;;;;;;17.80;99.90;;;;;;12521157;28;20374;-43
2023/07/26 12:38:31;;;;;;;;;;;17.70;99.90;;;;;;12497044;28;19927;-43
2023/07/26 12:44:33;;;;;;;;;;;17.50;99.90;;;;;;12502417;28;20538;-43
2023/07/26 12:50:35;;;;;;;;;;;17.70;99.90;;;;;;12523156;28;20293;-43
2023/07/26 12:56:38;;;;;;;;;;;17.80;99.90;;;;;;12508293;28;20304;-43
2023/07/26 13:02:43;;;;;;;;;;;17.90;99.90;;;;;;12520691;28;20008;-43
2023/07/26 13:08:46;;;;;;;;;;;18.00;99.90;;;;;;12513581;28;20281;-43
2023/07/26 13:14:48;;;;;;;;;;;17.80;99.90;;;;;;12525504;28;19925;-43
2023/07/26 13:20:51;;;;;;;;;;;17.90;99.90;;;;;;12503585;28;19928;-43
2023/07/26 13:26:56;;;;;;;;;;;18.10;99.90;;;;;;12535455;28;19956;-43
2023/07/26 13:33:00;;;;;;;;;;;18.00;99.90;;;;;;12497867;28;19955;-44
2023/07/26 13:39:06;;;;;;;;;;;18.50;99.90;;;;;;12480283;28;19925;-44
2023/07/26 13:45:08;;;;;;;;;;;19.00;99.90;;;;;;12499213;28;19925;-43
2023/07/26 13:51:12;;;;;;;;;;;19.50;99.90;;;;;;12513900;28;20343;-44
2023/07/26 13:57:17;;;;;;;;;;;19.60;99.90;;;;;;12505845;28;20274;-43
2023/07/26 14:03:23;;;;;;;;;;;19.30;99.90;;;;;;12490443;28;20309;-44
2023/07/26 14:09:26;;;;;;;;;;;19.00;99.90;;;;;;12501653;28;19921;-43
2023/07/26 14:15:30;;;;;;;;;;;19.60;99.90;;;;;;12508511;28;19951;-44
2023/07/26 14:21:36;;;;;;;;;;;19.00;99.90;;;;;;12520957;28;19925;-44
2023/07/26 14:27:40;;;;;;;;;;;18.70;99.90;;;;;;12501301;28;19952;-44
2023/07/26 14:33:43;;;;;;;;;;;18.80;99.90;;;;;;12510586;28;20007;-44
2023/07/26 14:39:46;;;;;;;;;;;18.80;99.90;;;;;;12515988;28;19921;-43
2023/07/26 14:45:51;;;;;;;;;;;18.60;99.90;;;;;;12497727;28;19963;-43
2023/07/26 14:51:53;;;;;;;;;;;18.40;99.90;;;;;;12513880;28;19921;-43
2023/07/26 14:57:56;;;;;;;;;;;18.20;99.90;;;;;;12532032;28;19985;-43
2023/07/26 15:04:01;;;;;;;;;;;17.40;99.90;;;;;;12542147;28;19924;-43
2023/07/26 15:10:06;;;;;;;;;;;16.00;99.90;;;;;;12502978;28;19921;-43
2023/07/26 15:16:10;;;;;;;;;;;15.40;99.90;;;;;;12472728;28;19928;-43
2023/07/26 15:22:13;;;;;;;;;;;15.70;99.90;;;;;;12518036;28;20031;-43
2023/07/26 15:28:18;;;;;;;;;;;16.00;99.90;;;;;;12521244;28;19928;-44
2023/07/26 15:34:22;;;;;;;;;;;16.00;99.90;;;;;;12505785;28;19921;-43
2023/07/26 15:40:26;;;;;;;;;;;16.10;99.90;;;;;;12497162;28;19920;-43
2023/07/26 15:46:30;;;;;;;;;;;16.80;99.90;;;;;;12508761;28;19947;-44
2023/07/26 15:52:43;;;;;;;;;;;17.60;99.90;;;;;;12526755;28;19957;-44
2023/07/26 15:58:46;;;;;;;;;;;18.10;99.90;;;;;;12522528;28;19921;-44
2023/07/26 16:04:48;;;;;;;;;;;18.00;99.90;;;;;;12514288;28;20027;-43
2023/07/26 16:10:54;;;;;;;;;;;18.60;99.90;;;;;;12515517;28;19940;-44
2023/07/26 16:16:57;;;;;;;;;;;18.80;99.90;;;;;;12514745;28;19921;-44
2023/07/26 16:23:02;;;;;;;;;;;18.90;99.90;;;;;;12504598;28;19925;-44
2023/07/26 16:29:05;;;;;;;;;;;18.70;99.90;;;;;;12516957;28;20038;-44
2023/07/26 16:35:08;;;;;;;;;;;18.90;99.90;;;;;;12496002;28;20507;-43
2023/07/26 16:41:11;;;;;;;;;;;19.10;99.90;;;;;;12511173;28;20310;-43
2023/07/26 16:47:14;;;;;;;;;;;18.60;99.90;;;;;;12499738;28;20296;-51
2023/07/26 16:53:17;;;;;;;;;;;18.90;99.90;;;;;;12511061;28;20183;-44
2023/07/26 16:59:19;;;;;;;;;;;18.90;99.90;;;;;;12532216;28;19925;-43
2023/07/26 17:05:21;;;;;;;;;;;18.80;99.90;;;;;;12517244;28;19928;-44
2023/07/26 17:11:24;;;;;;;;;;;18.30;99.90;;;;;;12513527;28;19920;-44
2023/07/26 17:17:27;;;;;;;;;;;18.10;99.90;;;;;;12533723;28;19921;-43
2023/07/26 17:23:29;;;;;;;;;;;18.00;99.90;;;;;;12504421;28;20326;-44
2023/07/26 17:29:31;;;;;;;;;;;18.00;99.90;;;;;;12509582;28;20361;-44
2023/07/26 17:35:34;;;;;;;;;;;17.80;99.90;;;;;;12489604;28;19950;-43
2023/07/26 17:41:39;;;;;;;;;;;17.70;99.90;;;;;;12513310;28;19921;-44
2023/07/26 17:47:41;;;;;;;;;;;17.60;99.90;;;;;;12526741;28;20403;-43
2023/07/26 17:53:44;;;;;;;;;;;16.80;99.90;;;;;;12523064;28;20332;-43
2023/07/26 17:59:47;;;;;;;;;;;16.10;99.90;;;;;;12527561;28;19975;-43
2023/07/26 18:05:53;;;;;;;;;;;16.10;99.90;;;;;;12515098;28;19928;-43
2023/07/26 18:11:56;;;;;;;;;;;16.00;99.90;;;;;;12506105;28;19921;-44
2023/07/26 18:17:59;;;;;;;;;;;15.80;99.90;;;;;;12519021;28;20383;-43
2023/07/26 18:24:02;;;;;;;;;;;15.90;99.90;;;;;;12508298;28;19921;-43
2023/07/26 18:30:05;;;;;;;;;;;15.80;99.90;;;;;;12509212;28;20289;-43
2023/07/26 18:36:11;;;;;;;;;;;15.80;99.90;;;;;;12494468;28;19921;-43
2023/07/26 18:42:14;;;;;;;;;;;15.60;99.90;;;;;;12505490;28;20991;-43
2023/07/26 18:48:19;;;;;;;;;;;15.40;99.90;;;;;;12513030;28;20289;-43
2023/07/26 18:54:22;;;;;;;;;;;15.10;99.90;;;;;;12511933;28;19929;-43
2023/07/26 19:00:24;;;;;;;;;;;14.90;99.90;;;;;;12526806;28;20625;-43
2023/07/26 19:06:27;;;;;;;;;;;14.80;99.90;;;;;;12504748;28;19920;-43
2023/07/26 19:12:32;;;;;;;;;;;14.90;99.90;;;;;;12533141;28;19921;-43
2023/07/26 19:18:34;;;;;;;;;;;14.90;99.90;;;;;;12512298;28;19921;-44
2023/07/26 19:24:37;;;;;;;;;;;14.90;99.90;;;;;;12509849;28;19920;-44
2023/07/26 19:30:40;;;;;;;;;;;14.90;99.90;;;;;;12509803;28;19921;-43
2023/07/26 19:36:42;;;;;;;;;;;14.80;99.90;;;;;;12490076;28;19921;-43
2023/07/26 19:42:46;;;;;;;;;;;14.60;99.90;;;;;;12513569;28;19967;-43
2023/07/26 19:48:51;;;;;;;;;;;14.40;99.90;;;;;;12505615;28;19921;-43
2023/07/26 19:54:54;;;;;;;;;;;14.30;99.90;;;;;;12512628;28;20216;-41
2023/07/26 20:00:57;;;;;;;;;;;14.40;99.90;;;;;;12519438;28;19932;-43
2023/07/26 20:07:00;;;;;;;;;;;14.30;99.90;;;;;;12510640;28;19932;-43
2023/07/26 20:13:03;;;;;;;;;;;14.30;99.90;;;;;;12506610;28;20403;-43
2023/07/26 20:19:06;;;;;;;;;;;14.30;99.90;;;;;;12514538;28;19925;-43
2023/07/26 20:25:08;;;;;;;;;;;14.30;99.90;;;;;;12522337;28;20399;-43
2023/07/26 20:31:11;;;;;;;;;;;14.10;99.90;;;;;;12512777;28;20441;-43
2023/07/26 20:37:14;;;;;;;;;;;14.20;99.90;;;;;;12503996;28;19972;-43
2023/07/26 20:43:16;;;;;;;;;;;14.20;99.90;;;;;;12519694;28;19920;-43
2023/07/26 20:49:18;;;;;;;;;;;14.30;99.90;;;;;;12505922;28;19925;-43
2023/07/26 20:55:20;;;;;;;;;;;14.30;99.90;;;;;;12509032;28;20028;-43
2023/07/26 21:01:22;;;;;;;;;;;14.20;99.90;;;;;;12519156;28;20579;-43
2023/07/26 21:07:24;;;;;;;;;;;14.20;99.90;;;;;;12512090;28;20015;-43
2023/07/26 21:13:27;;;;;;;;;;;14.20;99.90;;;;;;12506688;28;19966;-43
2023/07/26 21:19:30;;;;;;;;;;;14.20;99.90;;;;;;12518002;28;20011;-43
2023/07/26 21:25:34;;;;;;;;;;;14.20;99.90;;;;;;12511331;28;19921;-43
2023/07/26 21:31:36;;;;;;;;;;;14.30;99.90;;;;;;12503340;28;19921;-43
2023/07/26 21:37:38;;;;;;;;;;;14.20;99.90;;;;;;12507288;28;19921;-43
2023/07/26 21:43:41;;;;;;;;;;;14.20;99.90;;;;;;12523526;28;20580;-43
2023/07/26 21:49:44;;;;;;;;;;;14.10;99.90;;;;;;12509996;28;20297;-44
2023/07/26 21:55:46;;;;;;;;;;;14.00;99.90;;;;;;12529288;28;20442;-43
2023/07/26 22:01:48;;;;;;;;;;;14.00;99.90;;;;;;12511076;28;19921;-43
2023/07/26 22:07:51;;;;;;;;;;;14.10;99.90;;;;;;12507438;28;19921;-43
2023/07/26 22:13:53;;;;;;;;;;;14.00;99.90;;;;;;12508362;28;19924;-43
2023/07/26 22:19:56;;;;;;;;;;;14.00;99.90;;;;;;12525670;28;19921;-43
2023/07/26 22:25:58;;;;;;;;;;;14.00;99.90;;;;;;12517510;28;20316;-43
2023/07/26 22:32:14;;;;;;;;;;;14.00;99.90;;;;;;12515326;28;19920;-43
2023/07/26 22:38:16;;;;;;;;;;;14.00;99.90;;;;;;12502998;28;20327;-43
2023/07/26 22:44:18;;;;;;;;;;;13.90;99.90;;;;;;12503091;28;19929;-43
2023/07/26 22:50:20;;;;;;;;;;;13.90;99.90;;;;;;12506273;28;20714;-44
2023/07/26 22:56:23;;;;;;;;;;;13.90;99.90;;;;;;12523573;28;20019;-43
2023/07/26 23:02:26;;;;;;;;;;;13.80;99.90;;;;;;12508584;28;19920;-43
2023/07/26 23:08:28;;;;;;;;;;;13.90;99.90;;;;;;12498798;28;19959;-43
2023/07/26 23:14:30;;;;;;;;;;;13.90;99.90;;;;;;12524517;28;20430;-43
2023/07/26 23:20:34;;;;;;;;;;;13.90;99.90;;;;;;12514848;28;19924;-43
2023/07/26 23:26:36;;;;;;;;;;;13.80;99.90;;;;;;12529623;28;19966;-43
2023/07/26 23:32:38;;;;;;;;;;;13.80;99.90;;;;;;12510213;28;19921;-43
2023/07/26 23:38:41;;;;;;;;;;;13.80;99.90;;;;;;12499627;28;19924;-43
2023/07/26 23:44:43;;;;;;;;;;;13.80;99.90;;;;;;12499475;28;19928;-43
2023/07/26 23:50:46;;;;;;;;;;;13.80;99.90;;;;;;12514156;28;19921;-43
2023/07/26 23:56:49;;;;;;;;;;;13.80;99.90;;;;;;12521274;28;20357;-43
